Tiempo atmosférico en la estación meteorológica de Vallehermoso, Alto Igualero, Santa Cruz de Tenerife (1475 m.)



Fecha
DESCASC
Temp. máxima en grados centígrados (hora)
DESCASC
Temp. mínima en grados centígrados (hora)
DESCASC
Temp. media en grados centígrados
DESCASC
Racha de viento máxima en m/sg (hora)
DESCASC
Velocidad máxima media en intervalos de 10 minutos(hora)
DESCASC
Precipitaciones diarias en mm
DESCASC
Precipitaciones de 00:00 a 06:00 en mm
DESCASC
Precipitaciones de 06:00 a 12:00 en mm
DESCASC
Precipitaciones de 12:00 a 18:00 en mm
DESCASC
Precipitaciones de 18:00 a 24:00 en mm
DESCASC
28-02-2021 6.7 (15:40) 3.2 (01:20) 4.9 19.44 (06:20) 13.06 (05:10) 3.4 0.2 2.8 0.4 0
27-02-2021 5.7 (13:30) 2 (05:40) 3.8 21.94 (00:10) 15.83 (00:10) 0.6 0 0.2 0.2 0.2
26-02-2021 5.7 (14:00) 3.1 (01:50) 4.4 26.39 (21:50) 18.89 (02:00) 0.6 0.2 0.2 0 0.2
25-02-2021 9 (12:50) 3.6 (00:00) 6.3 23.89 (23:10) 18.89 (23:40) 6.2 0 3.4 2.6 0.2
24-02-2021 11.2 (02:30) 5.8 (00:00) 8.5 -- (--) -- (--) 0 0 0 0 0
23-02-2021 16.9 (14:10) 9.3 (00:00) 13.1 10.28 (22:30) 9.17 (22:30) 0 0 0 0 0
22-02-2021 13.9 (14:00) 7.3 (00:00) 10.6 10.83 (03:30) 9.44 (04:00) 0 0 0 0 0
21-02-2021 12.6 (16:20) 5.4 (00:00) 9 25.83 (00:50) 20.83 (00:50) 1 0.6 0.4 0 0
20-02-2021 11.2 (13:00) 5.7 (00:00) 8.4 30 (21:30) 22.22 (18:50) 5.8 0 0 4.8 1
19-02-2021 15.5 (13:00) 7.7 (00:00) 11.6 10.28 (17:40) 8.61 (18:00) 0 0 0 0 0
18-02-2021 17 (16:10) 5.1 (00:00) 11 12.5 (03:30) 10.56 (04:00) 0 0 0 0 0
17-02-2021 12.4 (12:30) 5.9 (00:00) 9.1 20.83 (05:00) 16.11 (05:30) 0 0 0 0 0
16-02-2021 11.7 (16:30) 7.3 (00:00) 9.5 22.5 (03:40) 16.39 (04:00) 0 0 0 0 0
15-02-2021 14.3 (13:30) 10.4 (00:00) 12.3 21.39 (10:40) 14.72 (10:30) 0 0 0 0 0
14-02-2021 18.7 (15:50) 9.9 (00:00) 14.3 11.11 (10:50) 8.89 (22:20) 0 0 0 0 0
13-02-2021 17.6 (15:00) 6 (00:00) 11.8 16.67 (00:10) 13.89 (05:20) 0 0 0 0 0
12-02-2021 8.8 (13:20) 6.5 (00:00) 7.7 19.17 (23:20) 14.17 (23:20) 0.6 0.4 0 0 0.2
11-02-2021 10.8 (12:30) 6.5 (00:00) 8.7 15.56 (21:20) 12.5 (19:30) 0 0 0 0 0
10-02-2021 14.4 (16:00) 8 (00:00) 11.2 9.72 (11:50) 6.39 (08:30) 0 0 0 0 0
09-02-2021 16 (16:50) 7.5 (00:00) 11.8 8.06 (10:50) 5.83 (07:20) 0 0 0 0 0
08-02-2021 15.6 (15:40) 7.1 (00:00) 11.4 10.56 (00:10) 9.72 (00:10) 0 0 0 0 0
07-02-2021 11.5 (13:20) 3.5 (00:00) 7.5 19.72 (00:20) 11.67 (00:50) 0.6 0.4 0.2 0 0
06-02-2021 5.5 (16:50) 2.3 (00:00) 3.9 25 (01:40) 16.39 (01:40) 2 0.6 0 0.8 0.6
05-02-2021 3.2 (00:20) 0.9 (00:00) 2.1 23.61 (23:00) 16.67 (22:50) 22.2 14.2 2.4 2.6 3
04-02-2021 8 (01:20) 2.7 (00:00) 5.4 20.56 (13:40) 14.17 (13:10) 1 0.4 0.2 0.2 0.2
03-02-2021 16.7 (13:40) 7 (00:00) 11.9 11.67 (22:10) 9.17 (23:10) 0 0 0 0 0
02-02-2021 22.4 (15:40) 14 (00:00) 18.2 10.83 (01:10) 8.89 (01:20) 0 0 0 0 0
01-02-2021 23 (15:50) 12.2 (00:00) 17.6 20.28 (04:50) 16.39 (05:10) 0 0 0 0 0

Gráficas

Temp. máximas Temp. mínimas Temp. medias Precipitaciones Rachas de viento máximas Velocidades máximas media en intervalos de 10 minutos

Datos horarios

Fecha y hora oficial Temperatura (ºC) Velocidad del viento (km/h) Dirección del viento Racha (km/h) Dirección de racha Precipitación (mm) Presión (hPa) Tendencia (hPa) Humedad (%)
2021-03-02 23:00:00 6.5 30 Nordeste 42 Nordeste 0 -- -- 100
2021-03-02 22:00:00 6.4 27 Nordeste 39 Nordeste 0 -- -- 100
2021-03-02 21:00:00 6.8 30 Nordeste 50 Nordeste 0.2 -- -- 100
2021-03-02 20:00:00 6.6 32 Nordeste 45 Nordeste 0 -- -- 100
2021-03-02 19:00:00 6.6 30 Nordeste 43 Nordeste 0 -- -- 100
2021-03-02 18:00:00 6.4 21 Nordeste 32 Nordeste 0 -- -- 100
2021-03-02 17:00:00 7.1 14 Nordeste 26 Este 0 -- -- 100
2021-03-02 16:00:00 7.4 6 Nordeste 23 Nordeste 0 -- -- 100
2021-03-02 15:00:00 7.7 10 Este 25 Este 0.2 -- -- 100
2021-03-02 14:00:00 9.8 12 Este 24 Este 0 -- -- 90
2021-03-02 13:00:00 8.6 12 Este 21 Este 0 -- -- 100
2021-03-02 12:00:00 7.9 8 Este 24 Este 0 -- -- 100
2021-03-02 11:00:00 7.4 13 Este 28 Este 0 -- -- 98
2021-03-02 10:00:00 7.7 15 Este 28 Este 0 -- -- 100
2021-03-02 09:00:00 6.2 22 Este 36 Este 0 -- -- 100
2021-03-02 08:00:00 5.4 15 Nordeste 32 Nordeste 0 -- -- 100
2021-03-02 07:00:00 5.3 18 Nordeste 40 Nordeste 0 -- -- 100
2021-03-02 06:00:00 4.8 10 Nordeste 22 Nordeste 0 -- -- 100
2021-03-02 05:00:00 4.5 14 Nordeste 21 Nordeste 0 -- -- 100
2021-03-02 04:00:00 4.6 3 Nordeste 12 Nordeste 0 -- -- 78
2021-03-02 03:00:00 3.8 10 Este 31 Nordeste 0 -- -- 100
2021-03-02 02:00:00 4.1 23 Este 38 Nordeste 0 -- -- 100
2021-03-02 01:00:00 4.5 33 Nordeste 45 Este 0 -- -- 100
2021-03-02 00:00:00 4.6 33 Nordeste 45 Nordeste 0 -- -- 100
2021-03-01 23:00:00 4.7 36 Nordeste 47 Nordeste 0 -- -- 100
2021-03-01 22:00:00 4.9 33 Nordeste 48 Nordeste 0 -- -- 100
2021-03-01 21:00:00 5 32 Nordeste 54 Nordeste 0 -- -- 100
2021-03-01 20:00:00 5 41 Nordeste 51 Nordeste 0 -- -- 100
2021-03-01 19:00:00 5.2 39 Nordeste 56 Nordeste 0 -- -- 100
2021-03-01 18:00:00 5.9 19 Nordeste 32 Nordeste 0 -- -- 98
2021-03-01 17:00:00 7.9 9 Nordeste 24 Este 0 -- -- 90
2021-03-01 16:00:00 9 9 Este 25 Este 0 -- -- 84
2021-03-01 15:00:00 9.8 10 Este 32 Nordeste 0 -- -- 79
2021-03-01 14:00:00 8.7 16 Nordeste 34 Norte 0 -- -- 78
2021-03-01 13:00:00 7.8 19 Nordeste 33 Nordeste 0 -- -- 84
2021-03-01 12:00:00 6.7 23 Nordeste 40 Nordeste 0 -- -- 100
2021-03-01 11:00:00 5.2 12 Norte 33 Norte 0 -- -- 100
2021-03-01 10:00:00 5.5 14 Norte 46 Nordeste 0 -- -- 100
2021-03-01 09:00:00 5 36 Nordeste 54 Nordeste 0 -- -- 100
2021-03-01 08:00:00 5.1 36 Nordeste 55 Nordeste 0 -- -- 100
2021-03-01 07:00:00 5 37 Nordeste 56 Nordeste 0 -- -- 100
2021-03-01 06:00:00 4.5 37 Nordeste 66 Nordeste 0 -- -- 100
2021-03-01 05:00:00 4.7 39 Nordeste 63 Nordeste 0.2 -- -- 100
2021-03-01 04:00:00 4.9 34 Nordeste 62 Nordeste 0 -- -- 100
2021-03-01 03:00:00 4.8 34 Nordeste 66 Nordeste 0 -- -- 100
2021-03-01 02:00:00 5.7 35 Nordeste 56 Nordeste 0 -- -- 100
2021-03-01 01:00:00 5.3 36 Nordeste 58 Nordeste 0 -- -- 100
2021-03-01 00:00:00 5.1 37 Nordeste 61 Nordeste 0 -- -- 100
2021-02-28 23:00:00 5.1 37 Nordeste 62 Nordeste 0 -- -- 100
2021-02-28 22:00:00 4.9 39 Nordeste 59 Nordeste 0 -- -- 100
2021-02-28 21:00:00 4.8 36 Nordeste 52 Nordeste 0 -- -- 100
2021-02-28 20:00:00 5.5 30 Nordeste 51 Nordeste 0 -- -- 100
2021-02-28 19:00:00 5 29 Nordeste 49 Nordeste 0 -- -- 100
2021-02-28 18:00:00 5.2 35 Nordeste 51 Nordeste 0 -- -- 100
2021-02-28 17:00:00 5.8 26 Nordeste 46 Nordeste 0 -- -- 100
2021-02-28 16:00:00 6.7 23 Nordeste 46 Nordeste 0.2 -- -- 100
2021-02-28 15:00:00 6.2 27 Nordeste 49 Nordeste 0 -- -- 100
2021-02-28 14:00:00 6 26 Nordeste 47 Nordeste 0 -- -- 100
2021-02-28 13:00:00 5.6 26 Nordeste 49 Nordeste 0.2 -- -- 100
2021-02-28 12:00:00 6.1 24 Nordeste 44 Nordeste 0.8 -- -- 100
2021-02-28 11:00:00 6 25 Nordeste 55 Nordeste 0 -- -- 100
2021-02-28 10:00:00 5.4 32 Nordeste 52 Nordeste 1.2 -- -- 100
2021-02-28 09:00:00 5.3 26 Nordeste 59 Nordeste 0.4 -- -- 100
2021-02-28 08:00:00 5.2 35 Nordeste 57 Norte 0 -- -- 100
2021-02-28 07:00:00 5 38 Norte 70 Norte 0.4 -- -- 100
2021-02-28 06:00:00 4.9 40 Norte 65 Norte 0 -- -- 100
2021-02-28 05:00:00 4.6 42 Norte 62 Norte 0.2 -- -- 100
2021-02-28 04:00:00 4.3 36 Nordeste 60 Norte 0 -- -- 100
2021-02-28 03:00:00 3.9 31 Nordeste 55 Nordeste 0 -- -- 100
2021-02-28 02:00:00 3.9 35 Nordeste 56 Nordeste 0 -- -- 100
2021-02-28 01:00:00 3.3 42 Nordeste 59 Nordeste 0 -- -- 100
2021-02-28 00:00:00 3.3 40 Nordeste 55 Nordeste 0 -- -- 100
2021-02-27 23:00:00 3.1 31 Nordeste 46 Nordeste 0 -- -- 100
2021-02-27 22:00:00 3 32 Norte 47 Norte 0 -- -- 100
2021-02-27 21:00:00 3 30 Norte 49 Norte 0 -- -- 100
2021-02-27 20:00:00 2.9 33 Norte 52 Norte 0.2 -- -- 100
2021-02-27 19:00:00 3.8 28 Nordeste 50 Norte 0 -- -- 100
2021-02-27 18:00:00 4.2 31 Nordeste 63 Nordeste 0.2 -- -- 100
2021-02-27 17:00:00 4.1 24 Nordeste 49 Nordeste 0 -- -- 100
2021-02-27 16:00:00 4.3 35 Nordeste 63 Nordeste 0 -- -- 98
2021-02-27 15:00:00 5.4 40 Nordeste 58 Nordeste 0 -- -- 85
2021-02-27 14:00:00 5.7 36 Nordeste 58 Nordeste 0 -- -- 84
2021-02-27 13:00:00 5.1 41 Nordeste 64 Norte 0 -- -- 83
2021-02-27 12:00:00 4.9 31 Nordeste 62 Nordeste 0 -- -- 90
2021-02-27 11:00:00 3.6 43 Nordeste 69 Nordeste 0 -- -- 100
2021-02-27 10:00:00 3.3 41 Nordeste 65 Nordeste 0 -- -- 100
2021-02-27 09:00:00 3.3 39 Nordeste 65 Nordeste 0.2 -- -- 100
2021-02-27 08:00:00 3.3 38 Nordeste 60 Nordeste 0 -- -- 100
2021-02-27 07:00:00 3.1 45 Nordeste 68 Este 0 -- -- 100
2021-02-27 06:00:00 2.4 46 Nordeste 65 Nordeste 0 -- -- 100
2021-02-27 05:00:00 2.6 47 Nordeste 63 Nordeste 0 -- -- 100
2021-02-27 04:00:00 3 42 Nordeste 74 Nordeste 0 -- -- 100
2021-02-27 03:00:00 3.6 47 Nordeste 76 Nordeste 0 -- -- 100
2021-02-27 02:00:00 3.5 54 Nordeste 75 Nordeste 0 -- -- 100
2021-02-27 01:00:00 4 45 Nordeste 79 Nordeste 0 -- -- 100
2021-02-27 00:00:00 4.1 57 Nordeste 82 Nordeste 0 -- -- 100
2021-02-26 23:00:00 4.1 61 Nordeste 87 Nordeste 0.2 -- -- 100
2021-02-26 22:00:00 4.5 60 Nordeste 95 Nordeste 0 -- -- 100
2021-02-26 21:00:00 4.4 54 Nordeste 83 Nordeste 0 -- -- 100
2021-02-26 20:00:00 4.4 56 Nordeste 86 Nordeste 0 -- -- 100
2021-02-26 19:00:00 4.3 47 Nordeste 76 Nordeste 0 -- -- 100
2021-02-26 18:00:00 4.6 45 Nordeste 70 Nordeste 0 -- -- 100
2021-02-26 17:00:00 4.7 48 Nordeste 68 Nordeste 0 -- -- 100
2021-02-26 16:00:00 5.2 50 Nordeste 67 Nordeste 0 -- -- 94
2021-02-26 15:00:00 5.2 53 Nordeste 71 Nordeste 0 -- -- 92
2021-02-26 14:00:00 5.7 45 Nordeste 66 Nordeste 0 -- -- 96
2021-02-26 13:00:00 5.4 53 Nordeste 78 Nordeste 0 -- -- 100
2021-02-26 12:00:00 4.6 57 Nordeste 75 Nordeste 0 -- -- 100
2021-02-26 11:00:00 4.4 53 Nordeste 72 Nordeste 0 -- -- 100
2021-02-26 10:00:00 4.5 52 Nordeste 76 Nordeste 0.2 -- -- 100
2021-02-26 09:00:00 4.7 51 Nordeste 72 Nordeste 0 -- -- 100
2021-02-26 08:00:00 3.4 56 Nordeste 80 Nordeste 0 -- -- 100
2021-02-26 07:00:00 3.2 58 Nordeste 75 Nordeste 0 -- -- 100
2021-02-26 06:00:00 3.7 57 Nordeste 80 Nordeste 0 -- -- 100
2021-02-26 05:00:00 3.9 59 Nordeste 86 Nordeste 0 -- -- 100
2021-02-26 04:00:00 3.6 64 Nordeste 81 Nordeste 0 -- -- 100
2021-02-26 03:00:00 3.7 60 Nordeste 84 Nordeste 0.2 -- -- 100
2021-02-26 02:00:00 3.3 68 Nordeste 82 Nordeste 0 -- -- 100
2021-02-26 01:00:00 3.8 63 Nordeste 81 Nordeste 0 -- -- 100
2021-02-26 00:00:00 3.6 67 Nordeste 86 Nordeste 0 -- -- 100
2021-02-25 23:00:00 4.5 67 Nordeste 85 Nordeste 0 -- -- 100
2021-02-25 22:00:00 4.7 62 Nordeste 82 Nordeste 0.2 -- -- 100
2021-02-25 21:00:00 5.2 55 Nordeste 75 Nordeste 0 -- -- 100
2021-02-25 20:00:00 5.5 42 Nordeste 59 Nordeste 0 -- -- 100
2021-02-25 19:00:00 5.7 27 Nordeste 48 Nordeste 0 -- -- 100
2021-02-25 18:00:00 7 22 Nordeste 40 Nordeste 0 -- -- 100
2021-02-25 17:00:00 7.5 33 Nordeste 48 Nordeste 0.2 -- -- 100
2021-02-25 16:00:00 7.4 33 Nordeste 51 Este 0.8 -- -- 100
2021-02-25 15:00:00 7.9 34 Nordeste 59 Nordeste 0.8 -- -- 100
2021-02-25 14:00:00 8.6 28 Nordeste 46 Este 0.4 -- -- 100
2021-02-25 13:00:00 9 32 Nordeste 48 Nordeste 0.4 -- -- 100
2021-02-25 12:00:00 8.7 33 Nordeste 48 Nordeste 1.2 -- -- 100
2021-02-25 11:00:00 8 36 Nordeste 53 Nordeste 1 -- -- 100
2021-02-25 10:00:00 7.6 39 Nordeste 55 Nordeste 0.4 -- -- 100
2021-02-25 09:00:00 7.7 36 Nordeste 67 Nordeste 0.6 -- -- 100
2021-02-25 08:00:00 7.5 43 Nordeste 63 Nordeste 0.2 -- -- 100
2021-02-25 07:00:00 7.1 39 Nordeste 66 Nordeste 0 -- -- 100
2021-02-25 06:00:00 7 48 Nordeste 69 Nordeste 0 -- -- 100
2021-02-25 05:00:00 6.4 45 Nordeste 65 Nordeste 0 -- -- 100
2021-02-25 04:00:00 6.2 48 Nordeste 67 Nordeste 0 -- -- 100
2021-02-25 03:00:00 6.2 53 Nordeste 68 Nordeste 0.2 -- -- 100
2021-02-25 02:00:00 6.2 49 Nordeste 69 Nordeste 0 -- -- 100
2021-02-25 01:00:00 6.2 46 Nordeste 59 Nordeste 0 -- -- 100
2021-02-25 00:00:00 6.3 46 Nordeste 65 Nordeste 0 -- -- 100
2021-02-24 23:00:00 6.5 47 Nordeste 66 Nordeste 0 -- -- 100
2021-02-24 22:00:00 7.2 47 Nordeste 71 Nordeste 0 -- -- 100
2021-02-24 21:00:00 7 39 Nordeste 62 Nordeste 0 -- -- 100
2021-02-24 20:00:00 6.8 39 Nordeste 63 Nordeste 0 -- -- 100
2021-02-24 19:00:00 6.8 40 Nordeste 65 Nordeste 0 -- -- 100
2021-02-24 18:00:00 7.3 41 Nordeste 62 Nordeste 0 -- -- 96
2021-02-24 17:00:00 7.8 40 Nordeste 62 Nordeste 0 -- -- 90
2021-02-24 16:00:00 9.1 44 Nordeste 66 Este 0 -- -- 73
2021-02-24 15:00:00 9.3 32 Nordeste 50 Nordeste 0 -- -- 81
2021-02-24 14:00:00 -- -- -- -- -- -- -- -- --
2021-02-24 13:00:00 8.4 39 Nordeste 61 Nordeste 0 -- -- 100
2021-02-24 12:00:00 7.5 44 Nordeste 69 Nordeste 0 -- -- 100
2021-02-24 11:00:00 6.7 51 Nordeste 64 Nordeste 0 -- -- 100
2021-02-24 10:00:00 6.3 45 Nordeste 62 Nordeste 0 -- -- 100
2021-02-24 09:00:00 7 42 Nordeste 55 Nordeste 0 -- -- 100
2021-02-24 08:00:00 6.1 42 Nordeste 54 Nordeste 0 -- -- 100
2021-02-24 07:00:00 6.2 45 Nordeste 53 Nordeste 0 -- -- 100
2021-02-24 06:00:00 6 40 Nordeste 54 Nordeste 0 -- -- 100
2021-02-24 05:00:00 6.1 39 Nordeste 54 Nordeste 0 -- -- 98
2021-02-24 04:00:00 8.4 41 Nordeste 51 Este 0 -- -- 48
2021-02-24 03:00:00 9.6 42 Nordeste 50 Nordeste 0 -- -- 30
2021-02-24 02:00:00 11 35 Nordeste 43 Norte 0 -- -- 22
2021-02-24 01:00:00 9.3 39 Nordeste 44 Nordeste 0 -- -- 38
2021-02-24 00:00:00 10 31 Nordeste 37 Nordeste 0 -- -- 32
2021-02-23 23:00:00 10.8 28 Norte 37 Nordeste 0 -- -- 25
2021-02-23 22:00:00 10.2 29 Nordeste 33 Nordeste 0 -- -- 30
2021-02-23 21:00:00 10.4 24 Nordeste 30 Nordeste 0 -- -- 31
2021-02-23 20:00:00 12.5 21 Norte 24 Norte 0 -- -- 14
2021-02-23 19:00:00 13.6 12 Norte 19 Norte 0 -- -- 13
2021-02-23 18:00:00 13.6 17 Norte 22 Norte 0 -- -- 24
2021-02-23 17:00:00 14.4 13 Oeste 23 Oeste 0 -- -- 74
2021-02-23 16:00:00 14.9 14 Noroeste 22 Noroeste 0 -- -- 81
2021-02-23 15:00:00 14 5 Norte 11 Noroeste 0 -- -- 89
2021-02-23 14:00:00 16 5 Norte 10 Nordeste 0 -- -- 79
2021-02-23 13:00:00 15.8 3 Este 11 Sur 0 -- -- 77
2021-02-23 12:00:00 15.9 5 Nordeste 13 Este 0 -- -- 63
2021-02-23 11:00:00 15.9 6 Este 14 Nordeste 0 -- -- 48
2021-02-23 10:00:00 13.3 5 Nordeste 14 Nordeste 0 -- -- 40
2021-02-23 09:00:00 12.7 9 Norte 18 Nordeste 0 -- -- 36
2021-02-23 08:00:00 12.3 10 Norte 13 Este 0 -- -- 27
2021-02-23 07:00:00 11.2 10 Este 13 Este 0 -- -- 37
2021-02-23 06:00:00 10.6 9 Este 17 Este 0 -- -- 46
2021-02-23 05:00:00 11.4 14 Este 16 Este 0 -- -- 38
2021-02-23 04:00:00 9.6 11 Este 12 Este 0 -- -- 65
2021-02-23 03:00:00 11.1 5 Este 8 Este 0 -- -- 44
2021-02-23 02:00:00 10.1 6 Sur 12 Sur 0 -- -- 63
2021-02-23 01:00:00 9.4 6 Sur 9 Sur 0 -- -- 71
2021-02-23 00:00:00 9.5 0 Calma 7 Sudeste 0 -- -- 69
2021-02-22 23:00:00 9.4 5 Sudeste 10 Sudeste 0 -- -- 73
2021-02-22 22:00:00 9.5 6 Este 13 Nordeste 0 -- -- 74
2021-02-22 21:00:00 9.9 10 Nordeste 12 Nordeste 0 -- -- 69
2021-02-22 20:00:00 10 0 Calma 7 Este 0 -- -- 66
2021-02-22 19:00:00 10.4 6 Este 18 Nordeste 0 -- -- 82
2021-02-22 18:00:00 11.7 12 Nordeste 22 Nordeste 0 -- -- 77
2021-02-22 17:00:00 11.2 17 Nordeste 24 Nordeste 0 -- -- 85
2021-02-22 16:00:00 12.7 14 Nordeste 25 Nordeste 0 -- -- 82
2021-02-22 15:00:00 13.5 13 Nordeste 31 Nordeste 0 -- -- 79
2021-02-22 14:00:00 13.9 12 Nordeste 26 Nordeste 0 -- -- 79
2021-02-22 13:00:00 13.5 9 Nordeste 25 Este 0 -- -- 82
2021-02-22 12:00:00 12.5 14 Este 27 Nordeste 0 -- -- 82
2021-02-22 11:00:00 10.6 13 Nordeste 24 Este 0 -- -- 93
2021-02-22 10:00:00 9.5 17 Nordeste 28 Nordeste 0 -- -- 97
2021-02-22 09:00:00 8.3 19 Nordeste 28 Nordeste 0 -- -- 100
2021-02-22 08:00:00 7.8 25 Nordeste 32 Nordeste 0 -- -- 100
2021-02-22 07:00:00 7.5 26 Nordeste 34 Norte 0 -- -- 100
2021-02-22 06:00:00 7.5 28 Norte 35 Norte 0 -- -- 100
2021-02-22 05:00:00 7.5 29 Norte 39 Norte 0 -- -- 96
2021-02-22 04:00:00 7.6 34 Norte 39 Norte 0 -- -- 88
2021-02-22 03:00:00 7.8 29 Norte 36 Norte 0 -- -- 75
2021-02-22 02:00:00 8.1 27 Norte 32 Norte 0 -- -- 64
2021-02-22 01:00:00 8.6 29 Norte 32 Norte 0 -- -- 61
2021-02-22 00:00:00 8.8 24 Nordeste 31 Norte 0 -- -- 58
2021-02-21 23:00:00 8.9 25 Norte 29 Norte 0 -- -- 55
2021-02-21 22:00:00 8.2 29 Noroeste 34 Norte 0 -- -- 46
2021-02-21 21:00:00 7.8 23 Norte 27 Norte 0 -- -- 43
2021-02-21 20:00:00 9.4 14 Norte 19 Norte 0 -- -- 51
2021-02-21 19:00:00 8.5 14 Nordeste 16 Nordeste 0 -- -- 61
2021-02-21 18:00:00 12.1 8 Noroeste 23 Noroeste 0 -- -- 66
2021-02-21 17:00:00 11.9 14 Oeste 24 Oeste 0 -- -- 79
2021-02-21 16:00:00 11.9 12 Noroeste 22 Oeste 0 -- -- 83
2021-02-21 15:00:00 11.7 14 Oeste 26 Oeste 0 -- -- 83
2021-02-21 14:00:00 11.8 13 Oeste 28 Noroeste 0 -- -- 59
2021-02-21 13:00:00 7 21 Norte 33 Norte 0 -- -- 100
2021-02-21 12:00:00 6.6 15 Norte 28 Norte 0 -- -- 100
2021-02-21 11:00:00 6 27 Norte 49 Norte 0 -- -- 100
2021-02-21 10:00:00 5.7 35 Norte 49 Norte 0 -- -- 100
2021-02-21 09:00:00 5.4 35 Norte 50 Norte 0 -- -- 100
2021-02-21 08:00:00 5.9 21 Norte 41 Norte 0.2 -- -- 100
2021-02-21 07:00:00 5.9 23 Norte 55 Norte 0.2 -- -- 100
2021-02-21 06:00:00 6.1 30 Norte 48 Norte 0 -- -- 100
2021-02-21 05:00:00 6.1 29 Norte 63 Norte 0.2 -- -- 100
2021-02-21 04:00:00 6.8 30 Norte 77 Norte 0.2 -- -- 100
2021-02-21 03:00:00 6.2 49 Noroeste 89 Noroeste 0 -- -- 100
2021-02-21 02:00:00 6.9 46 Noroeste 85 Oeste 0 -- -- 100
2021-02-21 01:00:00 6.4 63 Oeste 93 Oeste 0.2 -- -- 100
2021-02-21 00:00:00 7.1 54 Noroeste 90 Oeste 0 -- -- 100
2021-02-20 23:00:00 8.4 67 Oeste 89 Oeste 0.2 -- -- 100
2021-02-20 22:00:00 8.4 68 Noroeste 108 Oeste 0 -- -- 100
2021-02-20 21:00:00 8.7 69 Oeste 99 Oeste 0.4 -- -- 100
2021-02-20 20:00:00 9.9 57 Oeste 100 Oeste 0.4 -- -- 100
2021-02-20 19:00:00 10.1 73 Oeste 107 Oeste 0 -- -- 100
2021-02-20 18:00:00 10 73 Oeste 98 Oeste 1.4 -- -- 100
2021-02-20 17:00:00 10.1 57 Oeste 95 Oeste 2 -- -- 100
2021-02-20 16:00:00 9.9 52 Oeste 96 Sudoeste 0.8 -- -- 100
2021-02-20 15:00:00 9.4 61 Sudoeste 90 Sudoeste 0.6 -- -- 100
2021-02-20 14:00:00 9.3 48 Oeste 72 Sudoeste 0 -- -- 100
2021-02-20 13:00:00 11.2 46 Oeste 69 Oeste 0 -- -- 85
2021-02-20 12:00:00 9.9 51 Oeste 64 Oeste 0 -- -- 89
2021-02-20 11:00:00 8.8 45 Oeste 64 Oeste 0 -- -- 88
2021-02-20 10:00:00 7.3 47 Oeste 62 Oeste 0 -- -- 79
2021-02-20 09:00:00 6.3 45 Oeste 58 Sudoeste 0 -- -- 90
2021-02-20 08:00:00 6.2 40 Oeste 57 Oeste 0 -- -- 99
2021-02-20 07:00:00 5.7 36 Oeste 46 Oeste 0 -- -- 99
2021-02-20 06:00:00 7.4 33 Oeste 43 Oeste 0 -- -- 50
2021-02-20 05:00:00 7.7 35 Oeste 43 Oeste 0 -- -- 35
2021-02-20 04:00:00 8.3 32 Oeste 42 Sudoeste 0 -- -- 33
2021-02-20 03:00:00 8.9 31 Oeste 39 Oeste 0 -- -- 28
2021-02-20 02:00:00 9.5 29 Oeste 39 Sudoeste 0 -- -- 26
2021-02-20 01:00:00 9.3 26 Oeste 34 Sudoeste 0 -- -- 17
2021-02-20 00:00:00 10.1 27 Sudoeste 30 Sudoeste 0 -- -- 9
2021-02-19 23:00:00 9 27 Oeste 35 Oeste 0 -- -- 27
2021-02-19 22:00:00 8.7 23 Oeste 29 Sudoeste 0 -- -- 31
2021-02-19 21:00:00 9.7 22 Sudoeste 25 Oeste 0 -- -- 42
2021-02-19 20:00:00 8.6 17 Sudoeste 27 Sudoeste 0 -- -- 36
2021-02-19 19:00:00 9.2 20 Oeste 35 Oeste 0 -- -- 46
2021-02-19 18:00:00 11.7 31 Oeste 37 Sudoeste 0 -- -- 31
2021-02-19 17:00:00 13.4 24 Oeste 31 Sudoeste 0 -- -- 31
2021-02-19 16:00:00 13.4 23 Oeste 30 Oeste 0 -- -- 32
2021-02-19 15:00:00 14.6 19 Oeste 33 Oeste 0 -- -- 31
2021-02-19 14:00:00 14.3 19 Sudoeste 26 Sudoeste 0 -- -- 33
2021-02-19 13:00:00 15.5 14 Sudoeste 26 Sudoeste 0 -- -- 45
2021-02-19 12:00:00 13.5 18 Sudoeste 28 Oeste 0 -- -- 32
2021-02-19 11:00:00 13.7 12 Sur 19 Sur 0 -- -- 31
2021-02-19 10:00:00 11.9 17 Sur 22 Sur 0 -- -- 31
2021-02-19 09:00:00 10.2 14 Sur 21 Sur 0 -- -- 32
2021-02-19 08:00:00 8.5 17 Sur 25 Sur 0 -- -- 31
2021-02-19 07:00:00 8.1 24 Sur 27 Sur 0 -- -- 31
2021-02-19 06:00:00 7.8 18 Sudeste 21 Sur 0 -- -- 32
2021-02-19 05:00:00 8 15 Sudeste 17 Sudeste 0 -- -- 30
2021-02-19 04:00:00 8.4 12 Sudeste 21 Sudeste 0 -- -- 30
2021-02-19 03:00:00 8.8 17 Sudeste 19 Sudeste 0 -- -- 27
2021-02-19 02:00:00 8.7 15 Sudeste 17 Sur 0 -- -- 29
2021-02-19 01:00:00 9.5 8 Sudeste 13 Sudeste 0 -- -- 25
2021-02-19 00:00:00 9.8 9 Sudeste 12 Sudeste 0 -- -- 24
2021-02-18 23:00:00 9.6 8 Sudeste 10 Sudeste 0 -- -- 24
2021-02-18 22:00:00 9.6 9 Sudeste 10 Sudeste 0 -- -- 25
2021-02-18 21:00:00 9.8 7 Sudeste 14 Sudeste 0 -- -- 26
2021-02-18 20:00:00 9.7 11 Sudeste 17 Sudeste 0 -- -- 27
2021-02-18 19:00:00 10.2 13 Sudeste 15 Sudeste 0 -- -- 26
2021-02-18 18:00:00 15.7 3 Nordeste 13 Sudoeste 0 -- -- 36
2021-02-18 17:00:00 15.5 8 Oeste 15 Oeste 0 -- -- 37
2021-02-18 16:00:00 16.9 4 Este 11 Noroeste 0 -- -- 38
2021-02-18 15:00:00 15.7 5 Este 14 Oeste 0 -- -- 39
2021-02-18 14:00:00 16.8 7 Sudeste 20 Sudeste 0 -- -- 38
2021-02-18 13:00:00 13.9 9 Este 27 Sudeste 0 -- -- 36
2021-02-18 12:00:00 12.8 19 Este 30 Sudeste 0 -- -- 29
2021-02-18 11:00:00 9.8 18 Este 28 Este 0 -- -- 37
2021-02-18 10:00:00 11.1 21 Este 29 Este 0 -- -- 32
2021-02-18 09:00:00 8.7 25 Este 32 Este 0 -- -- 29
2021-02-18 08:00:00 6.7 27 Este 38 Este 0 -- -- 31
2021-02-18 07:00:00 5.7 30 Este 39 Nordeste 0 -- -- 36
2021-02-18 06:00:00 5.6 31 Nordeste 42 Nordeste 0 -- -- 29
2021-02-18 05:00:00 5.8 34 Nordeste 42 Nordeste 0 -- -- 36
2021-02-18 04:00:00 6 38 Nordeste 45 Nordeste 0 -- -- 49
2021-02-18 03:00:00 6.2 31 Nordeste 35 Nordeste 0 -- -- 64
2021-02-18 02:00:00 6.3 22 Nordeste 30 Nordeste 0 -- -- 38
2021-02-18 01:00:00 7.3 22 Nordeste 26 Nordeste 0 -- -- 25
2021-02-18 00:00:00 7.5 24 Nordeste 32 Norte 0 -- -- 28
2021-02-17 23:00:00 7.6 26 Nordeste 31 Norte 0 -- -- 26
2021-02-17 22:00:00 7 27 Nordeste 33 Norte 0 -- -- 26
2021-02-17 21:00:00 7.1 26 Norte 39 Norte 0 -- -- 24
2021-02-17 20:00:00 6.7 32 Norte 39 Norte 0 -- -- 34
2021-02-17 19:00:00 7 32 Norte 45 Norte 0 -- -- 40
2021-02-17 18:00:00 8.4 33 Norte 47 Norte 0 -- -- 45
2021-02-17 17:00:00 8.9 29 Norte 48 Norte 0 -- -- 46
2021-02-17 16:00:00 9.8 30 Norte 41 Norte 0 -- -- 41
2021-02-17 15:00:00 10.2 24 Norte 35 Norte 0 -- -- 43
2021-02-17 14:00:00 10.3 23 Norte 33 Norte 0 -- -- 41
2021-02-17 13:00:00 12.1 8 Norte 21 Noroeste 0 -- -- 50
2021-02-17 12:00:00 11.4 8 Nordeste 19 Este 0 -- -- 47
2021-02-17 11:00:00 11 10 Este 28 Este 0 -- -- 55
2021-02-17 10:00:00 10 20 Este 39 Este 0 -- -- 51
2021-02-17 09:00:00 7 33 Este 55 Este 0 -- -- 51
2021-02-17 08:00:00 6 46 Este 64 Este 0 -- -- 56
2021-02-17 07:00:00 6.4 50 Este 72 Sudeste 0 -- -- 47
2021-02-17 06:00:00 7 55 Este 73 Este 0 -- -- 38
2021-02-17 05:00:00 7.4 56 Este 75 Este 0 -- -- 36
2021-02-17 04:00:00 7.5 36 Este 64 Sudeste 0 -- -- 37
2021-02-17 03:00:00 8.2 39 Este 64 Este 0 -- -- 28
2021-02-17 02:00:00 8.6 49 Este 72 Sudeste 0 -- -- 28
2021-02-17 01:00:00 8.4 47 Sudeste 71 Sudeste 0 -- -- 28
2021-02-17 00:00:00 8.8 50 Sudeste 69 Sudeste 0 -- -- 30
2021-02-16 23:00:00 8 42 Sudeste 62 Sudeste 0 -- -- 39
2021-02-16 22:00:00 7.4 42 Este 56 Sudeste 0 -- -- 44
2021-02-16 21:00:00 7.8 31 Este 42 Este 0 -- -- 44
2021-02-16 20:00:00 8 23 Este 37 Este 0 -- -- 42
2021-02-16 19:00:00 8.6 20 Nordeste 38 Nordeste 0 -- -- 36
2021-02-16 18:00:00 9.7 25 Nordeste 40 Este 0 -- -- 43
2021-02-16 17:00:00 11 17 Este 29 Este 0 -- -- 45
2021-02-16 16:00:00 10.7 20 Este 31 Este 0 -- -- 53
2021-02-16 15:00:00 11.1 21 Este 42 Este 0 -- -- 63
2021-02-16 14:00:00 10.3 33 Este 62 Sudeste 0 -- -- 64
2021-02-16 13:00:00 9.3 50 Sudeste 67 Sudeste 0 -- -- 75
2021-02-16 12:00:00 9.7 34 Sudeste 56 Este 0 -- -- 75
2021-02-16 11:00:00 9.9 37 Este 57 Este 0 -- -- 61
2021-02-16 10:00:00 9.4 44 Este 59 Este 0 -- -- 49
2021-02-16 09:00:00 8.4 45 Este 57 Este 0 -- -- 50
2021-02-16 08:00:00 7.6 45 Este 61 Este 0 -- -- 52
2021-02-16 07:00:00 7.9 45 Este 68 Este 0 -- -- 46
2021-02-16 06:00:00 8.2 50 Este 68 Sudeste 0 -- -- 46
2021-02-16 05:00:00 8.7 54 Este 78 Sudeste 0 -- -- 46
2021-02-16 04:00:00 9.1 59 Este 81 Sudeste 0 -- -- 48
2021-02-16 03:00:00 9.9 48 Este 68 Este 0 -- -- 40
2021-02-16 02:00:00 10.4 31 Este 49 Sudeste 0 -- -- 35
2021-02-16 01:00:00 10.9 29 Este 55 Este 0 -- -- 31
2021-02-16 00:00:00 11 39 Este 53 Este 0 -- -- 31
2021-02-15 23:00:00 10.9 30 Este 49 Sudeste 0 -- -- 32
2021-02-15 22:00:00 11 32 Este 49 Este 0 -- -- 32
2021-02-15 21:00:00 10.5 32 Este 46 Este 0 -- -- 30
2021-02-15 20:00:00 10.9 32 Este 45 Sudeste 0 -- -- 34
2021-02-15 19:00:00 11.1 31 Este 42 Este 0 -- -- 34
2021-02-15 18:00:00 13 31 Este 45 Este 0 -- -- 31
2021-02-15 17:00:00 13.2 32 Este 40 Este 0 -- -- 33
2021-02-15 16:00:00 13.2 31 Sudeste 45 Sudeste 0 -- -- 36
2021-02-15 15:00:00 13.2 35 Sudeste 55 Este 0 -- -- 37
2021-02-15 14:00:00 13.4 37 Sudeste 63 Sudeste 0 -- -- 40
2021-02-15 13:00:00 13.7 45 Este 69 Este 0 -- -- 34
2021-02-15 12:00:00 13.3 48 Este 71 Sudeste 0 -- -- 34
2021-02-15 11:00:00 13.1 52 Este 77 Sudeste 0 -- -- 32
2021-02-15 10:00:00 13 50 Sudeste 71 Sudeste 0 -- -- 32
2021-02-15 09:00:00 12.4 44 Sudeste 65 Sudeste 0 -- -- 32
2021-02-15 08:00:00 11.7 40 Sudeste 57 Este 0 -- -- 29
2021-02-15 07:00:00 12.2 36 Sudeste 64 Sudeste 0 -- -- 29
2021-02-15 06:00:00 12.8 33 Sudeste 46 Sudeste 0 -- -- 23
2021-02-15 05:00:00 12.4 29 Sudeste 44 Sudeste 0 -- -- 23
2021-02-15 04:00:00 12.4 32 Sudeste 45 Sudeste 0 -- -- 23
2021-02-15 03:00:00 12.4 38 Sudeste 45 Sudeste 0 -- -- 22
2021-02-15 02:00:00 12.5 33 Sudeste 42 Sudeste 0 -- -- 22
2021-02-15 01:00:00 12.1 36 Sudeste 44 Sudeste 0 -- -- 22
2021-02-15 00:00:00 12.1 26 Sudeste 36 Sudeste 0 -- -- 21
2021-02-14 23:00:00 12.6 29 Sudeste 38 Sudeste 0 -- -- 17
2021-02-14 22:00:00 12.2 30 Este 35 Este 0 -- -- 17
2021-02-14 21:00:00 12.2 23 Este 27 Este 0 -- -- 29
2021-02-14 20:00:00 12.9 16 Este 22 Este 0 -- -- 30
2021-02-14 19:00:00 14.6 9 Este 17 Este 0 -- -- 28
2021-02-14 18:00:00 17.5 7 Este 18 Sudeste 0 -- -- 25
2021-02-14 17:00:00 17.7 12 Este 23 Este 0 -- -- 30
2021-02-14 16:00:00 18.5 10 Este 23 Este 0 -- -- 31
2021-02-14 15:00:00 18.4 14 Este 23 Este 0 -- -- 30
2021-02-14 14:00:00 17.9 14 Este 27 Este 0 -- -- 31
2021-02-14 13:00:00 17.6 13 Este 31 Este 0 -- -- 33
2021-02-14 12:00:00 16.6 23 Este 37 Este 0 -- -- 30
2021-02-14 11:00:00 16.4 24 Este 40 Este 0 -- -- 29
2021-02-14 10:00:00 15.4 27 Este 36 Este 0 -- -- 31
2021-02-14 09:00:00 13.8 24 Este 34 Este 0 -- -- 31
2021-02-14 08:00:00 11.2 24 Este 28 Este 0 -- -- 34
2021-02-14 07:00:00 10.8 22 Este 29 Este 0 -- -- 34
2021-02-14 06:00:00 10.9 24 Este 28 Este 0 -- -- 33
2021-02-14 05:00:00 9.9 20 Este 24 Este 0 -- -- 34
2021-02-14 04:00:00 11.8 16 Este 22 Este 0 -- -- 32
2021-02-14 03:00:00 11.9 14 Este 25 Sudeste 0 -- -- 34
2021-02-14 02:00:00 11.8 17 Sudeste 24 Nordeste 0 -- -- 34
2021-02-14 01:00:00 11.5 25 Nordeste 33 Nordeste 0 -- -- 36
2021-02-14 00:00:00 11.7 29 Nordeste 34 Nordeste 0 -- -- 35
2021-02-13 23:00:00 12.3 24 Nordeste 29 Nordeste 0 -- -- 33
2021-02-13 22:00:00 11.7 21 Sudeste 32 Sudeste 0 -- -- 37
2021-02-13 21:00:00 10.8 22 Este 28 Este 0 -- -- 40
2021-02-13 20:00:00 11.7 6 Sudeste 16 Norte 0 -- -- 49
2021-02-13 19:00:00 13.6 12 Nordeste 19 Norte 0 -- -- 32
2021-02-13 18:00:00 14.9 15 Norte 19 Norte 0 -- -- 32
2021-02-13 17:00:00 15.4 12 Nordeste 21 Nordeste 0 -- -- 33
2021-02-13 16:00:00 16.3 10 Norte 16 Norte 0 -- -- 31
2021-02-13 15:00:00 17.6 7 Este 20 Este 0 -- -- 34
2021-02-13 14:00:00 15.2 14 Este 24 Este 0 -- -- 51
2021-02-13 13:00:00 15.2 15 Este 23 Este 0 -- -- 54
2021-02-13 12:00:00 13.3 20 Este 33 Este 0 -- -- 68
2021-02-13 07:00:00 -- -- -- -- -- -- -- -- --
2021-02-13 06:00:00 8.3 37 Este 57 Nordeste 0 -- -- 60
2021-02-13 05:00:00 9.1 45 Nordeste 52 Nordeste 0 -- -- 46
2021-02-13 04:00:00 9 46 Nordeste 55 Nordeste 0 -- -- 48
2021-02-13 03:00:00 6.4 40 Nordeste 56 Nordeste 0 -- -- 100
2021-02-13 02:00:00 6.8 35 Nordeste 51 Nordeste 0 -- -- 100
2021-02-13 01:00:00 7 40 Nordeste 60 Nordeste 0 -- -- 100
2021-02-13 00:00:00 7 46 Nordeste 69 Nordeste 0 -- -- 100
2021-02-12 23:00:00 7.3 50 Nordeste 65 Nordeste 0.2 -- -- 100
2021-02-12 22:00:00 7.5 43 Nordeste 64 Nordeste 0 -- -- 100
2021-02-12 21:00:00 7.1 50 Nordeste 66 Nordeste 0 -- -- 100
2021-02-12 20:00:00 6.9 43 Nordeste 60 Nordeste 0 -- -- 100
2021-02-12 19:00:00 7.1 30 Nordeste 45 Nordeste 0 -- -- 100
2021-02-12 18:00:00 7.4 28 Nordeste 43 Nordeste 0 -- -- 100
2021-02-12 17:00:00 7.9 31 Nordeste 49 Nordeste 0 -- -- 100
2021-02-12 16:00:00 8.3 36 Nordeste 49 Este 0 -- -- 100
2021-02-12 15:00:00 8.4 32 Nordeste 49 Nordeste 0 -- -- 100
2021-02-12 14:00:00 8.6 32 Nordeste 47 Nordeste 0 -- -- 100
2021-02-12 13:00:00 8.5 30 Nordeste 54 Nordeste 0 -- -- 100
2021-02-12 12:00:00 8.4 26 Este 61 Este 0 -- -- 100
2021-02-12 11:00:00 7.3 42 Este 61 Nordeste 0 -- -- 100
2021-02-12 10:00:00 6.9 47 Nordeste 62 Nordeste 0 -- -- 100
2021-02-12 09:00:00 6.8 39 Nordeste 59 Nordeste 0 -- -- 100
2021-02-12 08:00:00 6.8 39 Nordeste 59 Nordeste 0 -- -- 100
2021-02-12 07:00:00 6.7 45 Nordeste 57 Nordeste 0 -- -- 100
2021-02-12 06:00:00 6.7 44 Nordeste 56 Nordeste 0.2 -- -- 100
2021-02-12 05:00:00 6.9 37 Nordeste 47 Nordeste 0 -- -- 100
2021-02-12 04:00:00 6.5 40 Nordeste 51 Nordeste 0 -- -- 100
2021-02-12 03:00:00 6.8 37 Nordeste 53 Nordeste 0.2 -- -- 100
2021-02-12 02:00:00 7.4 39 Nordeste 55 Este 0 -- -- 100
2021-02-12 01:00:00 6.9 40 Nordeste 55 Nordeste 0 -- -- 100
2021-02-12 00:00:00 7 41 Nordeste 53 Nordeste 0 -- -- 100
2021-02-11 23:00:00 7 39 Nordeste 55 Nordeste 0 -- -- 100
2021-02-11 22:00:00 6.9 41 Nordeste 56 Nordeste 0 -- -- 100
2021-02-11 21:00:00 7 42 Nordeste 55 Nordeste 0 -- -- 100
2021-02-11 20:00:00 7.1 45 Nordeste 54 Nordeste 0 -- -- 92
2021-02-11 19:00:00 7 41 Nordeste 53 Nordeste 0 -- -- 89
2021-02-11 18:00:00 7.7 30 Nordeste 45 Nordeste 0 -- -- 94
2021-02-11 17:00:00 8.7 28 Nordeste 41 Nordeste 0 -- -- 93
2021-02-11 16:00:00 8.9 26 Nordeste 40 Nordeste 0 -- -- 93
2021-02-11 15:00:00 10.1 26 Nordeste 45 Nordeste 0 -- -- 87
2021-02-11 14:00:00 9.9 25 Nordeste 39 Nordeste 0 -- -- 84
2021-02-11 13:00:00 10.4 17 Nordeste 33 Norte 0 -- -- 83
2021-02-11 12:00:00 9.3 20 Norte 35 Nordeste 0 -- -- 90
2021-02-11 11:00:00 8.2 18 Norte 33 Norte 0 -- -- 94
2021-02-11 10:00:00 8.3 26 Norte 34 Norte 0 -- -- 75
2021-02-11 09:00:00 8.5 28 Norte 32 Norte 0 -- -- 64
2021-02-11 08:00:00 7.9 22 Norte 26 Norte 0 -- -- 65
2021-02-11 07:00:00 7.5 22 Noroeste 29 Noroeste 0 -- -- 69
2021-02-11 06:00:00 8 22 Noroeste 27 Noroeste 0 -- -- 60
2021-02-11 05:00:00 8.9 13 Noroeste 17 Oeste 0 -- -- 50
2021-02-11 04:00:00 8.2 13 Noroeste 18 Noroeste 0 -- -- 68
2021-02-11 03:00:00 8.8 12 Noroeste 13 Noroeste 0 -- -- 64
2021-02-11 02:00:00 9 8 Noroeste 19 Noroeste 0 -- -- 63
2021-02-11 01:00:00 9.1 11 Noroeste 16 Oeste 0 -- -- 63
2021-02-11 00:00:00 8.8 13 Oeste 15 Oeste 0 -- -- 63
2021-02-10 23:00:00 9.5 5 Norte 15 Noroeste 0 -- -- 53
2021-02-10 22:00:00 10.4 9 Norte 19 Norte 0 -- -- 45
2021-02-10 21:00:00 10.9 15 Noroeste 24 Noroeste 0 -- -- 37
2021-02-10 20:00:00 9.6 20 Noroeste 24 Noroeste 0 -- -- 50
2021-02-10 19:00:00 9.8 18 Noroeste 22 Noroeste 0 -- -- 57
2021-02-10 18:00:00 11.7 16 Noroeste 22 Oeste 0 -- -- 65
2021-02-10 17:00:00 13.6 16 Oeste 27 Oeste 0 -- -- 57
2021-02-10 16:00:00 14.4 20 Oeste 30 Oeste 0 -- -- 55
2021-02-10 15:00:00 12.9 15 Oeste 28 Oeste 0 -- -- 75
2021-02-10 14:00:00 13.6 11 Oeste 26 Noroeste 0 -- -- 77
2021-02-10 13:00:00 13.4 15 Oeste 25 Oeste 0 -- -- 60
2021-02-10 12:00:00 12.4 18 Oeste 35 Oeste 0 -- -- 54
2021-02-10 11:00:00 12.2 18 Oeste 30 Oeste 0 -- -- 34
2021-02-10 10:00:00 10.4 19 Oeste 24 Oeste 0 -- -- 36
2021-02-10 09:00:00 10.7 21 Oeste 25 Oeste 0 -- -- 26
2021-02-10 08:00:00 10 18 Oeste 22 Oeste 0 -- -- 23
2021-02-10 07:00:00 9.5 14 Oeste 18 Noroeste 0 -- -- 37
2021-02-10 06:00:00 10.7 17 Noroeste 20 Noroeste 0 -- -- 13
2021-02-10 05:00:00 10.2 14 Noroeste 17 Noroeste 0 -- -- 24
2021-02-10 04:00:00 9.4 8 Noroeste 12 Oeste 0 -- -- 37
2021-02-10 03:00:00 11.1 14 Oeste 15 Oeste 0 -- -- 19
2021-02-10 02:00:00 11.1 8 Noroeste 13 Oeste 0 -- -- 17
2021-02-10 01:00:00 9.2 8 Norte 14 Norte 0 -- -- 37
2021-02-10 00:00:00 9.4 12 Nordeste 18 Norte 0 -- -- 40
2021-02-09 23:00:00 7.5 4 Nordeste 16 Noroeste 0 -- -- 76
2021-02-09 22:00:00 10 10 Oeste 18 Oeste 0 -- -- 40
2021-02-09 21:00:00 10.7 15 Oeste 19 Oeste 0 -- -- 31
2021-02-09 20:00:00 9.9 13 Noroeste 23 Oeste 0 -- -- 36
2021-02-09 19:00:00 10.2 21 Noroeste 25 Noroeste 0 -- -- 46
2021-02-09 18:00:00 10.9 13 Oeste 18 Oeste 0 -- -- 89
2021-02-09 17:00:00 15.9 7 Noroeste 19 Noroeste 0 -- -- 70
2021-02-09 16:00:00 14.2 12 Noroeste 20 Noroeste 0 -- -- 77
2021-02-09 15:00:00 14.4 7 Noroeste 19 Oeste 0 -- -- 73
2021-02-09 14:00:00 15.2 15 Oeste 21 Noroeste 0 -- -- 53
2021-02-09 13:00:00 14.7 9 Noroeste 17 Noroeste 0 -- -- 55
2021-02-09 12:00:00 12.9 9 Noroeste 22 Noroeste 0 -- -- 37
2021-02-09 11:00:00 11.4 18 Noroeste 29 Noroeste 0 -- -- 33
2021-02-09 10:00:00 11.3 15 Oeste 23 Oeste 0 -- -- 23
2021-02-09 09:00:00 10.6 19 Oeste 23 Oeste 0 -- -- 22
2021-02-09 08:00:00 10.2 21 Oeste 24 Oeste 0 -- -- 23
2021-02-09 07:00:00 10 20 Oeste 21 Oeste 0 -- -- 22
2021-02-09 06:00:00 10.3 16 Oeste 20 Oeste 0 -- -- 20
2021-02-09 05:00:00 10.9 17 Oeste 20 Oeste 0 -- -- 20
2021-02-09 04:00:00 11.2 15 Oeste 17 Oeste 0 -- -- 21
2021-02-09 03:00:00 11.6 10 Oeste 14 Noroeste 0 -- -- 20
2021-02-09 02:00:00 11.6 8 Norte 16 Norte 0 -- -- 20
2021-02-09 01:00:00 11.2 16 Norte 18 Norte 0 -- -- 20
2021-02-09 00:00:00 11.5 6 Norte 22 Nordeste 0 -- -- 18
2021-02-08 23:00:00 9.9 18 Nordeste 22 Nordeste 0 -- -- 30
2021-02-08 22:00:00 10.3 19 Nordeste 23 Nordeste 0 -- -- 25
2021-02-08 21:00:00 10.5 17 Nordeste 22 Nordeste 0 -- -- 26
2021-02-08 20:00:00 9.8 23 Nordeste 28 Nordeste 0 -- -- 28
2021-02-08 19:00:00 9.7 24 Nordeste 26 Nordeste 0 -- -- 32
2021-02-08 18:00:00 11.4 20 Nordeste 23 Nordeste 0 -- -- 35
2021-02-08 17:00:00 12.8 15 Nordeste 20 Nordeste 0 -- -- 43
2021-02-08 16:00:00 14.4 11 Nordeste 17 Nordeste 0 -- -- 41
2021-02-08 15:00:00 14.5 12 Nordeste 21 Nordeste 0 -- -- 33
2021-02-08 14:00:00 14.8 5 Nordeste 19 Nordeste 0 -- -- 63
2021-02-08 13:00:00 14.9 5 Nordeste 24 Nordeste 0 -- -- 62
2021-02-08 12:00:00 11.8 15 Nordeste 27 Nordeste 0 -- -- 69
2021-02-08 11:00:00 12 19 Nordeste 28 Nordeste 0 -- -- 51
2021-02-08 10:00:00 11.1 20 Nordeste 28 Nordeste 0 -- -- 46
2021-02-08 09:00:00 9.1 25 Nordeste 31 Nordeste 0 -- -- 50
2021-02-08 08:00:00 8.9 28 Nordeste 31 Nordeste 0 -- -- 45
2021-02-08 07:00:00 9.3 27 Nordeste 35 Nordeste 0 -- -- 45
2021-02-08 06:00:00 9.8 29 Nordeste 34 Nordeste 0 -- -- 42
2021-02-08 05:00:00 9.7 27 Nordeste 32 Nordeste 0 -- -- 50
2021-02-08 04:00:00 9.6 26 Nordeste 32 Nordeste 0 -- -- 50
2021-02-08 03:00:00 9.7 26 Nordeste 32 Nordeste 0 -- -- 47
2021-02-08 02:00:00 10.6 27 Nordeste 33 Nordeste 0 -- -- 42
2021-02-08 01:00:00 9.7 31 Nordeste 38 Nordeste 0 -- -- 47
2021-02-08 00:00:00 7.1 35 Nordeste 38 Nordeste 0 -- -- 73
2021-02-07 23:00:00 8.2 30 Nordeste 46 Nordeste 0 -- -- 55
2021-02-07 22:00:00 7.1 31 Nordeste 38 Nordeste 0 -- -- 67
2021-02-07 21:00:00 8 30 Nordeste 36 Nordeste 0 -- -- 50
2021-02-07 20:00:00 7.7 31 Nordeste 35 Nordeste 0 -- -- 50
2021-02-07 19:00:00 8.1 26 Nordeste 33 Nordeste 0 -- -- 48
2021-02-07 18:00:00 8.6 22 Nordeste 31 Nordeste 0 -- -- 55
2021-02-07 17:00:00 11.1 6 Norte 17 Norte 0 -- -- 80
2021-02-07 16:00:00 10.7 8 Norte 17 Nordeste 0 -- -- 75
2021-02-07 15:00:00 10.5 3 Nordeste 15 Nordeste 0 -- -- 85
2021-02-07 14:00:00 10.8 4 Nordeste 13 Este 0 -- -- 90
2021-02-07 13:00:00 10.8 7 Este 13 Este 0 -- -- 96
2021-02-07 12:00:00 8.9 3 Este 26 Nordeste 0 -- -- 100
2021-02-07 11:00:00 6.6 18 Nordeste 32 Nordeste 0.2 -- -- 100
2021-02-07 10:00:00 5.9 27 Nordeste 38 Este 0 -- -- 100
2021-02-07 09:00:00 4.3 26 Nordeste 42 Nordeste 0 -- -- 100
2021-02-07 08:00:00 4.2 24 Nordeste 42 Nordeste 0 -- -- 100
2021-02-07 07:00:00 4.6 32 Nordeste 45 Este 0 -- -- 100
2021-02-07 06:00:00 4.6 27 Nordeste 41 Nordeste 0.2 -- -- 100
2021-02-07 05:00:00 5.1 23 Nordeste 51 Nordeste 0.2 -- -- 100
2021-02-07 04:00:00 4.2 35 Nordeste 54 Norte 0 -- -- 100
2021-02-07 03:00:00 4.2 38 Nordeste 51 Norte 0 -- -- 100
2021-02-07 02:00:00 3.6 33 Nordeste 62 Nordeste 0 -- -- 100
2021-02-07 01:00:00 4.4 37 Nordeste 71 Nordeste 0 -- -- 100
2021-02-07 00:00:00 4.3 37 Nordeste 67 Nordeste 0 -- -- 100
2021-02-06 23:00:00 4.2 33 Nordeste 72 Nordeste 0 -- -- 100
2021-02-06 22:00:00 4.1 38 Norte 76 Norte 0 -- -- 100
2021-02-06 21:00:00 4 54 Norte 76 Norte 0 -- -- 100
2021-02-06 20:00:00 4.7 35 Norte 68 Norte 0.6 -- -- 100
2021-02-06 19:00:00 5.1 39 Norte 67 Norte 0 -- -- 100
2021-02-06 18:00:00 4.5 48 Norte 70 Norte 0.4 -- -- 100
2021-02-06 17:00:00 5 37 Norte 70 Norte 0.4 -- -- 100
2021-02-06 16:00:00 4.8 42 Norte 65 Norte 0 -- -- 100
2021-02-06 15:00:00 5.2 36 Norte 69 Norte 0 -- -- 100
2021-02-06 14:00:00 4.6 44 Norte 70 Norte 0 -- -- 100
2021-02-06 13:00:00 4.3 51 Norte 71 Norte 0 -- -- 100
2021-02-06 12:00:00 4.2 46 Norte 70 Norte 0 -- -- 100
2021-02-06 11:00:00 4.3 53 Norte 72 Norte 0 -- -- 100
2021-02-06 10:00:00 3.9 45 Norte 75 Norte 0 -- -- 100
2021-02-06 09:00:00 4.1 57 Norte 78 Norte 0 -- -- 100
2021-02-06 08:00:00 3.7 58 Norte 77 Norte 0 -- -- 100
2021-02-06 07:00:00 3.2 54 Norte 77 Noroeste 0 -- -- 100
2021-02-06 06:00:00 3.3 57 Norte 80 Norte 0 -- -- 100
2021-02-06 05:00:00 3.6 54 Norte 82 Noroeste 0.6 -- -- 100
2021-02-06 04:00:00 3.3 53 Norte 77 Norte 0 -- -- 100
2021-02-06 03:00:00 3.2 49 Norte 77 Norte 0 -- -- 100
2021-02-06 02:00:00 2.5 53 Norte 90 Norte 0 -- -- 100
2021-02-06 01:00:00 2.7 49 Norte 80 Norte 0 -- -- 100
2021-02-06 00:00:00 2.6 49 Norte 77 Norte 0.4 -- -- 100
2021-02-05 23:00:00 2.8 59 Norte 85 Norte 0 -- -- 100
2021-02-05 22:00:00 2.6 54 Norte 76 Norte 1 -- -- 100
2021-02-05 21:00:00 2.7 51 Norte 78 Norte 0.4 -- -- 100
2021-02-05 20:00:00 3.2 53 Norte 78 Norte 1 -- -- 100
2021-02-05 19:00:00 2.9 54 Norte 78 Norte 0.2 -- -- 100
2021-02-05 18:00:00 2.9 54 Norte 78 Norte 0 -- -- 100
2021-02-05 17:00:00 2.4 55 Norte 83 Norte 0 -- -- 100
2021-02-05 16:00:00 2.3 52 Norte 74 Norte 0.2 -- -- 100
2021-02-05 15:00:00 2.6 48 Norte 78 Norte 0 -- -- 100
2021-02-05 14:00:00 2.1 52 Norte 76 Norte 0.4 -- -- 100
2021-02-05 13:00:00 2.6 48 Norte 74 Noroeste 2 -- -- 100
2021-02-05 12:00:00 2 51 Norte 82 Norte 1 -- -- 100
2021-02-05 11:00:00 2.1 40 Norte 80 Norte 0.6 -- -- 100
2021-02-05 10:00:00 2.4 52 Norte 71 Norte 0 -- -- 100
2021-02-05 09:00:00 1.9 49 Norte 76 Noroeste 0 -- -- 100
2021-02-05 08:00:00 1.6 53 Noroeste 80 Noroeste 0.4 -- -- 100
2021-02-05 07:00:00 1.9 43 Norte 70 Norte 0.4 -- -- 100
2021-02-05 06:00:00 1.2 45 Noroeste 62 Noroeste 3.8 -- -- 100
2021-02-05 05:00:00 1.1 26 Noroeste 57 Noroeste 3 -- -- 100
2021-02-05 04:00:00 2.2 34 Noroeste 45 Noroeste 0 -- -- 100
2021-02-05 03:00:00 1.9 36 Oeste 52 Oeste 0.2 -- -- 100
2021-02-05 02:00:00 2.4 35 Oeste 55 Noroeste 3.4 -- -- 100
2021-02-05 01:00:00 3.2 21 Noroeste 46 Noroeste 3.8 -- -- 100
2021-02-05 00:00:00 2.9 30 Noroeste 61 Oeste 0 -- -- 100
2021-02-04 23:00:00 3 31 Noroeste 57 Noroeste 0 -- -- 100
2021-02-04 22:00:00 3.2 39 Oeste 59 Oeste 0 -- -- 100
2021-02-04 21:00:00 3.9 37 Noroeste 59 Noroeste 0.2 -- -- 100
2021-02-04 20:00:00 3.4 40 Noroeste 60 Oeste 0 -- -- 100
2021-02-04 19:00:00 3.2 35 Noroeste 54 Noroeste 0 -- -- 100
2021-02-04 18:00:00 4.1 37 Noroeste 53 Noroeste 0 -- -- 100
2021-02-04 17:00:00 4.3 29 Noroeste 50 Noroeste 0 -- -- 100
2021-02-04 16:00:00 4.5 36 Noroeste 58 Oeste 0 -- -- 100
2021-02-04 15:00:00 4.3 39 Noroeste 68 Oeste 0.2 -- -- 100
2021-02-04 14:00:00 5.3 48 Oeste 74 Oeste 0 -- -- 100
2021-02-04 13:00:00 4.7 48 Oeste 69 Oeste 0 -- -- 100
2021-02-04 12:00:00 5.2 44 Oeste 69 Noroeste 0 -- -- 100
2021-02-04 11:00:00 5.3 43 Oeste 73 Oeste 0 -- -- 100
2021-02-04 10:00:00 4.5 33 Noroeste 57 Oeste 0 -- -- 100
2021-02-04 09:00:00 4.8 33 Noroeste 45 Noroeste 0 -- -- 100
2021-02-04 08:00:00 5.7 27 Noroeste 43 Noroeste 0.2 -- -- 100
2021-02-04 07:00:00 6 28 Noroeste 37 Noroeste 0 -- -- 100
2021-02-04 06:00:00 6.5 32 Noroeste 39 Noroeste 0.2 -- -- 100
2021-02-04 05:00:00 7 21 Norte 35 Norte 0 -- -- 100
2021-02-04 04:00:00 6.8 28 Norte 41 Norte 0 -- -- 100
2021-02-04 03:00:00 7 32 Norte 41 Norte 0.2 -- -- 100
2021-02-04 02:00:00 7.5 30 Norte 41 Norte 0 -- -- 100
2021-02-04 01:00:00 7.9 33 Norte 43 Norte 0 -- -- 100
2021-02-04 00:00:00 7.1 30 Norte 41 Norte 0 -- -- 100
2021-02-03 23:00:00 7.1 28 Norte 42 Norte 0 -- -- 100
2021-02-03 22:00:00 8.6 23 Noroeste 33 Noroeste 0 -- -- 77
2021-02-03 21:00:00 9 26 Noroeste 33 Noroeste 0 -- -- 69
2021-02-03 20:00:00 11.7 12 Oeste 14 Oeste 0 -- -- 26
2021-02-03 19:00:00 12.7 8 Sudoeste 12 Oeste 0 -- -- 17
2021-02-03 18:00:00 15.1 7 Noroeste 17 Oeste 0 -- -- 32
2021-02-03 17:00:00 16 14 Oeste 21 Oeste 0 -- -- 45
2021-02-03 16:00:00 16.3 14 Oeste 25 Oeste 0 -- -- 48
2021-02-03 15:00:00 16.7 21 Oeste 32 Oeste 0 -- -- 44
2021-02-03 14:00:00 15.8 22 Oeste 32 Oeste 0 -- -- 36
2021-02-03 13:00:00 16.2 22 Oeste 29 Oeste 0 -- -- 33
2021-02-03 12:00:00 15.5 21 Sudoeste 30 Sudoeste 0 -- -- 35
2021-02-03 11:00:00 14.4 24 Sudoeste 31 Sudoeste 0 -- -- 36
2021-02-03 10:00:00 14.6 23 Sudoeste 28 Sudoeste 0 -- -- 37
2021-02-03 09:00:00 13.4 22 Sudoeste 28 Sur 0 -- -- 38
2021-02-03 08:00:00 11.8 23 Sur 29 Sur 0 -- -- 37
2021-02-03 07:00:00 12 19 Sur 22 Sur 0 -- -- 30
2021-02-03 06:00:00 12.2 17 Sur 19 Sur 0 -- -- 31
2021-02-03 05:00:00 13.3 9 Sudeste 12 Sur 0 -- -- 27
2021-02-03 04:00:00 14.9 0 Calma 6 Norte 0 -- -- 18
2021-02-03 03:00:00 14.2 2 Este 10 Este 0 -- -- 22
2021-02-03 02:00:00 15.3 5 Este 10 Nordeste 0 -- -- 18
2021-02-03 01:00:00 15.3 3 Nordeste 6 Noroeste 0 -- -- 19
2021-02-03 00:00:00 14.8 2 Este 4 Norte 0 -- -- 19
2021-02-02 23:00:00 15.4 4 Sudeste 7 Sudoeste 0 -- -- 18
2021-02-02 22:00:00 14.7 0 Calma 11 Este 0 -- -- 20
2021-02-02 21:00:00 15.2 6 Este 8 Este 0 -- -- 20
2021-02-02 20:00:00 14.9 6 Nordeste 9 Nordeste 0 -- -- 20
2021-02-02 19:00:00 15 8 Nordeste 12 Norte 0 -- -- 20
2021-02-02 18:00:00 17.5 8 Norte 15 Noroeste 0 -- -- 26
2021-02-02 17:00:00 21.4 8 Noroeste 13 Noroeste 0 -- -- 33
2021-02-02 16:00:00 21.8 4 Nordeste 14 Oeste 0 -- -- 41
2021-02-02 15:00:00 20.9 5 Este 26 Sudeste 0 -- -- 25
2021-02-02 14:00:00 18.9 21 Sudeste 29 Sudeste 0 -- -- 25
2021-02-02 13:00:00 18.6 17 Sudeste 29 Sudeste 0 -- -- 19
2021-02-02 12:00:00 19.6 16 Este 22 Sudeste 0 -- -- 21
2021-02-02 11:00:00 19.1 17 Este 24 Este 0 -- -- 25
2021-02-02 10:00:00 19.5 11 Este 21 Sudeste 0 -- -- 21
2021-02-02 09:00:00 16.9 16 Sudeste 21 Sudeste 0 -- -- 21
2021-02-02 08:00:00 15.6 18 Sudeste 23 Sudeste 0 -- -- 19
2021-02-02 07:00:00 15.5 16 Sudeste 30 Sudeste 0 -- -- 20
2021-02-02 06:00:00 15.5 19 Este 27 Este 0 -- -- 21
2021-02-02 05:00:00 15.4 21 Este 33 Este 0 -- -- 21
2021-02-02 04:00:00 15.9 26 Este 35 Este 0 -- -- 21
2021-02-02 03:00:00 15.5 28 Este 36 Este 0 -- -- 22
2021-02-02 02:00:00 14.9 29 Este 39 Este 0 -- -- 24
2021-02-02 01:00:00 14.7 26 Este 33 Este 0 -- -- 26
2021-02-02 00:00:00 14 17 Este 26 Nordeste 0 -- -- 33
2021-02-01 23:00:00 12.2 25 Nordeste 32 Nordeste 0 -- -- 40
2021-02-01 22:00:00 13.3 10 Nordeste 17 Este 0 -- -- 41
2021-02-01 21:00:00 15 14 Este 18 Este 0 -- -- 34
2021-02-01 20:00:00 17.1 7 Este 14 Nordeste 0 -- -- 20
2021-02-01 19:00:00 17.1 3 Nordeste 23 Nordeste 0 -- -- 19
2021-02-01 18:00:00 16.1 18 Nordeste 22 Nordeste 0 -- -- 28
2021-02-01 17:00:00 19.3 7 Norte 15 Oeste 0 -- -- 32
2021-02-01 16:00:00 22.7 3 Este 19 Sudeste 0 -- -- 36
2021-02-01 15:00:00 20.1 10 Este 30 Este 0 -- -- 25
2021-02-01 14:00:00 20.8 10 Este 26 Norte 0 -- -- 26
2021-02-01 13:00:00 20.6 14 Este 24 Este 0 -- -- 31
2021-02-01 12:00:00 21.6 4 Este 19 Nordeste 0 -- -- 37
2021-02-01 11:00:00 17.8 13 Este 45 Nordeste 0 -- -- 31
2021-02-01 10:00:00 15.2 37 Nordeste 55 Nordeste 0 -- -- 34
2021-02-01 09:00:00 13.2 44 Nordeste 66 Este 0 -- -- 46
2021-02-01 08:00:00 13.4 51 Nordeste 72 Nordeste 0 -- -- 41
2021-02-01 07:00:00 13.3 55 Nordeste 67 Nordeste 0 -- -- 45
2021-02-01 06:00:00 13.2 52 Nordeste 71 Nordeste 0 -- -- 47
2021-02-01 05:00:00 13.6 59 Nordeste 73 Nordeste 0 -- -- 44
2021-02-01 04:00:00 13.2 47 Este 62 Este 0 -- -- 46
2021-02-01 03:00:00 14.4 48 Nordeste 59 Nordeste 0 -- -- 37
2021-02-01 02:00:00 13.4 48 Este 69 Este 0 -- -- 47
2021-02-01 01:00:00 13.9 50 Nordeste 67 Nordeste 0 -- -- 43
2021-02-01 00:00:00 13.1 50 Nordeste 65 Nordeste 0 -- -- 51